| Time | Avg. Air Temp | Dew Point | Avg. Rel Humidity | Avg. 2 Min Wind Speed | Max Gust Velocity | MGV Time | MGV Direction | Avg. Spot Wind Velocity |
|---|---|---|---|---|---|---|---|---|
| 2026-05-08 08:30:00 | 5° C | -7° C | 41% | 14 km/h | 15 km/h | 08:30:00 | S | 14 km/h |
| 07:30:00 | 5° C | -7° C | 44% | 18 km/h | 19 km/h | 07:26:00 | SW | 18 km/h |
| 06:30:00 | 5° C | -7° C | 40% | 15 km/h | 18 km/h | 06:27:00 | SW | 16 km/h |
| 05:30:00 | 5° C | -7° C | 42% | 21 km/h | 22 km/h | 05:29:00 | W | 19 km/h |
| 04:30:00 | 4° C | -5° C | 52% | 21 km/h | 23 km/h | 04:30:00 | SW | 22 km/h |
| 03:30:00 | 4° C | -5° C | 51% | 17 km/h | 18 km/h | 03:30:00 | SW | 16 km/h |
| 02:30:00 | 5° C | -7° C | 41% | 18 km/h | 21 km/h | 02:30:00 | SW | 18 km/h |
| 01:30:00 | 5° C | -6° C | 46% | 19 km/h | 21 km/h | 01:29:00 | SW | 18 km/h |
| 00:30:00 | 5° C | -6° C | 44% | 16 km/h | 21 km/h | 00:26:00 | W | 16 km/h |
| 23:30:00 | 5° C | -4° C | 54% | 16 km/h | 17 km/h | 23:29:00 | SW | 16 km/h |
| 22:30:00 | 5° C | -4° C | 51% | 16 km/h | 17 km/h | 22:27:00 | SW | 16 km/h |
| 21:30:00 | 5° C | -4° C | 51% | 13 km/h | 15 km/h | 21:29:00 | W | 13 km/h |
| 20:30:00 | 5° C | -4° C | 50% | 16 km/h | 17 km/h | 20:30:00 | W | 16 km/h |
| 19:30:00 | 6° C | -3° C | 51% | 5 km/h | 12 km/h | 19:26:00 | NW | 7 km/h |
| 18:30:00 | 6° C | -3° C | 53% | 8 km/h | 14 km/h | 18:28:00 | W | 9 km/h |
| 17:30:00 | 6° C | -4° C | 49% | 4 km/h | 14 km/h | 17:26:00 | NW | 10 km/h |
| 16:30:00 | 6° C | -3° C | 52% | 5 km/h | 15 km/h | 16:27:00 | NW | 6 km/h |
| 15:30:00 | 5° C | -3° C | 52% | 7 km/h | 17 km/h | 15:26:00 | N | 8 km/h |
| 14:30:00 | 4° C | -2° C | 63% | 12 km/h | 20 km/h | 14:28:00 | W | 9 km/h |
| 13:30:00 | 4° C | -2° C | 66% | 5 km/h | 12 km/h | 13:30:00 | N | 6 km/h |
| 12:30:00 | 3° C | -1° C | 74% | 4 km/h | 9 km/h | 12:26:00 | SW | 5 km/h |
| 11:30:00 | 2° C | -2° C | 76% | 5 km/h | 11 km/h | 11:26:00 | NE | 6 km/h |
| 10:30:00 | 2° C | 0° C | 88% | 7 km/h | 8 km/h | 10:30:00 | NE | 6 km/h |
| 09:30:00 | 1° C | 1° C | 100% | 1 km/h | 6 km/h | 09:26:00 | NW | 1 km/h |
Subpeak Weather
| Time | Avg. Air Temp | Dew Point | Avg. Rel Humidity | Avg. 2 Min Wind Speed | Max Gust Velocity | MGV Time | MGV Direction | Avg. Spot Wind Velocity |
|---|---|---|---|---|---|---|---|---|
| 2026-05-08 08:30:00 | 5° C | -7° C | 41% | 14 km/h | 15 km/h | 08:30:00 | S | 14 km/h |
| 08:25:00 | 5° C | -7° C | 42% | 13 km/h | 14 km/h | 08:24:00 | S | 12 km/h |
| 08:20:00 | 5° C | -7° C | 41% | 11 km/h | 12 km/h | 08:19:00 | S | 10 km/h |
| 08:15:00 | 5° C | -7° C | 41% | 12 km/h | 15 km/h | 08:11:00 | S | 12 km/h |
| 08:10:00 | 5° C | -7° C | 41% | 12 km/h | 16 km/h | 08:07:00 | S | 12 km/h |
| 08:05:00 | 5° C | -7° C | 41% | 14 km/h | 16 km/h | 08:02:00 | S | 14 km/h |
| 08:00:00 | 5° C | -7° C | 41% | 15 km/h | 18 km/h | 07:56:00 | SW | 16 km/h |
| 07:55:00 | 5° C | -7° C | 42% | 17 km/h | 19 km/h | 07:53:00 | S | 17 km/h |
| 07:50:00 | 5° C | -7° C | 42% | 17 km/h | 20 km/h | 07:48:00 | S | 17 km/h |
| 07:45:00 | 5° C | -7° C | 42% | 19 km/h | 21 km/h | 07:45:00 | SW | 19 km/h |
| 07:40:00 | 5° C | -7° C | 43% | 20 km/h | 22 km/h | 07:37:00 | SW | 20 km/h |
| 07:35:00 | 5° C | -6° C | 43% | 18 km/h | 20 km/h | 07:33:00 | SW | 19 km/h |
| 07:30:00 | 5° C | -7° C | 44% | 18 km/h | 19 km/h | 07:26:00 | SW | 18 km/h |




